Time;durP1;ratioP1;P1;durP2;ratioP2;P2;SDS_P1;SDS_P2;PMS_P1;PMS_P2;Temp;Humidity;BMP_temperature;BMP_pressure;BME280_temperature;BME280_humidity;BME280_pressure;Samples;Min_cycle;Max_cycle;Signal;HPM_P1;HPM_P2
2023/08/30 00:01:36;;;;;;;1.05;0.90;;;16.00;99.90;;;;;;1884337;76;21150;-79
2023/08/30 00:04:28;;;;;;;1.57;0.80;;;15.90;99.90;;;;;;1884540;76;21133;-79
2023/08/30 00:07:19;;;;;;;1.87;0.85;;;15.90;99.90;;;;;;1884393;76;21045;-79
2023/08/30 00:10:11;;;;;;;1.42;1.00;;;15.80;99.90;;;;;;1884655;76;21092;-80
2023/08/30 00:13:03;;;;;;;0.93;0.80;;;15.90;99.90;;;;;;1884384;76;21092;-79
2023/08/30 00:15:54;;;;;;;2.05;0.85;;;15.90;99.90;;;;;;1873763;75;21076;-79
2023/08/30 00:18:46;;;;;;;1.52;0.60;;;16.00;99.90;;;;;;1872340;76;21125;-79
2023/08/30 00:21:38;;;;;;;2.02;0.82;;;16.00;99.90;;;;;;1872182;76;21172;-79
2023/08/30 00:24:29;;;;;;;2.20;0.88;;;16.00;99.90;;;;;;1872327;76;21096;-79
2023/08/30 00:27:21;;;;;;;1.12;0.80;;;16.00;99.90;;;;;;1872433;76;21093;-79
2023/08/30 00:30:14;;;;;;;0.98;0.70;;;16.10;99.90;;;;;;1872165;76;21611;-79
2023/08/30 00:33:06;;;;;;;0.98;0.80;;;16.00;99.90;;;;;;1872313;76;21171;-79
2023/08/30 00:36:02;;;;;;;0.80;0.80;;;16.00;99.90;;;;;;1880964;76;21116;-79
2023/08/30 00:38:53;;;;;;;1.62;0.78;;;15.90;99.90;;;;;;1872362;76;21629;-79
2023/08/30 00:41:44;;;;;;;0.53;0.53;;;15.80;99.90;;;;;;1872386;76;21093;-79
2023/08/30 00:44:36;;;;;;;1.67;0.80;;;15.80;99.90;;;;;;1872431;76;21175;-79
2023/08/30 00:47:27;;;;;;;0.90;0.78;;;15.80;99.90;;;;;;1872304;76;21097;-79
2023/08/30 00:50:19;;;;;;;2.00;0.80;;;15.80;99.90;;;;;;1872352;76;21046;-79
2023/08/30 00:53:13;;;;;;;0.75;0.60;;;15.80;99.90;;;;;;1872556;76;21085;-79
2023/08/30 00:56:05;;;;;;;2.35;0.85;;;15.80;99.90;;;;;;1872531;76;21135;-79
2023/08/30 00:58:57;;;;;;;1.77;1.60;;;15.80;99.90;;;;;;1872320;76;21111;-79
2023/08/30 01:01:49;;;;;;;3.67;2.17;;;15.70;99.90;;;;;;1872030;76;21194;-79
2023/08/30 01:04:40;;;;;;;3.10;2.30;;;15.70;99.90;;;;;;1871797;76;21158;-79
2023/08/30 01:07:32;;;;;;;1.75;1.32;;;15.70;99.90;;;;;;1872313;76;21150;-80
2023/08/30 01:10:27;;;;;;;2.27;1.40;;;15.60;99.90;;;;;;1872335;76;21061;-79
2023/08/30 01:13:21;;;;;;;2.60;1.50;;;15.50;99.90;;;;;;1872303;76;21083;-79
2023/08/30 01:16:14;;;;;;;3.27;1.72;;;15.50;99.90;;;;;;1879258;76;21145;-79
2023/08/30 01:19:10;;;;;;;1.52;1.00;;;15.50;99.90;;;;;;1884618;76;21145;-79
2023/08/30 01:22:05;;;;;;;1.20;1.10;;;15.50;99.90;;;;;;1884604;76;21535;-79
2023/08/30 01:25:03;;;;;;;2.72;1.20;;;15.50;99.90;;;;;;1884502;76;21112;-79
2023/08/30 01:27:59;;;;;;;2.95;1.10;;;15.60;99.90;;;;;;1886928;76;21088;-79
2023/08/30 01:30:54;;;;;;;2.33;1.32;;;15.70;99.90;;;;;;1887886;75;21583;-79
2023/08/30 01:33:45;;;;;;;3.98;1.55;;;15.60;99.90;;;;;;1884879;76;21058;-79
2023/08/30 01:36:38;;;;;;;5.60;1.70;;;15.50;99.90;;;;;;1884782;76;21108;-79
2023/08/30 01:39:30;;;;;;;2.12;1.07;;;15.40;99.90;;;;;;1884656;76;21061;-79
2023/08/30 01:42:22;;;;;;;3.47;1.20;;;15.40;99.90;;;;;;1884419;76;21170;-79
2023/08/30 01:45:14;;;;;;;2.85;1.75;;;15.50;99.90;;;;;;1884612;76;21153;-79
2023/08/30 01:48:09;;;;;;;3.65;1.95;;;15.40;99.90;;;;;;1884620;76;21552;-79
2023/08/30 01:51:01;;;;;;;3.33;2.10;;;15.30;99.90;;;;;;1884594;76;21620;-79
2023/08/30 01:53:55;;;;;;;2.45;1.10;;;15.20;99.90;;;;;;1884653;76;21225;-79
2023/08/30 01:56:47;;;;;;;2.50;1.37;;;15.10;99.90;;;;;;1884418;76;21381;-79
2023/08/30 01:59:38;;;;;;;1.37;1.17;;;15.10;99.90;;;;;;1884835;76;21532;-79
2023/08/30 02:02:31;;;;;;;1.42;0.70;;;15.00;99.90;;;;;;1884970;76;21606;-79
2023/08/30 02:05:23;;;;;;;0.90;0.60;;;14.90;99.90;;;;;;1884504;76;21112;-79
2023/08/30 02:08:18;;;;;;;4.25;0.80;;;14.80;99.90;;;;;;1884802;76;21152;-79
2023/08/30 02:11:13;;;;;;;1.85;0.70;;;14.80;99.90;;;;;;1884921;76;21081;-79
2023/08/30 02:14:08;;;;;;;1.02;0.70;;;14.80;99.90;;;;;;1884983;76;21065;-79
2023/08/30 02:16:59;;;;;;;0.60;0.60;;;14.80;99.90;;;;;;1884788;76;21195;-79
2023/08/30 02:19:53;;;;;;;0.82;0.70;;;14.90;99.90;;;;;;1884771;76;21552;-79
2023/08/30 02:22:44;;;;;;;3.33;1.05;;;14.80;99.90;;;;;;1884621;76;21105;-79
2023/08/30 02:25:35;;;;;;;1.12;0.82;;;14.80;99.90;;;;;;1884960;76;21095;-79
2023/08/30 02:28:27;;;;;;;2.50;0.95;;;14.80;99.90;;;;;;1884658;76;21089;-79
2023/08/30 02:31:19;;;;;;;2.92;1.30;;;14.70;99.90;;;;;;1884411;76;21089;-79
2023/08/30 02:34:10;;;;;;;3.22;0.72;;;14.70;99.90;;;;;;1884852;76;21151;-79
2023/08/30 02:37:02;;;;;;;2.00;0.88;;;14.60;99.90;;;;;;1884889;76;21145;-79
2023/08/30 02:39:53;;;;;;;2.52;0.90;;;14.60;99.90;;;;;;1884599;76;21163;-79
2023/08/30 02:42:45;;;;;;;0.75;0.60;;;14.60;99.90;;;;;;1884902;76;21553;-79
2023/08/30 02:45:36;;;;;;;1.15;0.70;;;14.50;99.90;;;;;;1884705;76;21182;-79
2023/08/30 02:48:28;;;;;;;3.00;0.70;;;14.50;99.90;;;;;;1884807;76;21100;-79
2023/08/30 02:51:19;;;;;;;1.80;0.90;;;14.50;99.90;;;;;;1885017;76;21052;-81
2023/08/30 02:54:12;;;;;;;1.27;1.00;;;14.50;99.90;;;;;;1884449;76;21116;-79
2023/08/30 02:57:04;;;;;;;1.15;0.88;;;14.50;99.90;;;;;;1884562;76;21104;-79
2023/08/30 02:59:55;;;;;;;1.37;0.90;;;14.50;99.90;;;;;;1884306;76;21181;-80
2023/08/30 03:02:47;;;;;;;3.37;1.25;;;14.60;99.90;;;;;;1884842;76;21830;-80
2023/08/30 03:05:38;;;;;;;2.05;0.75;;;14.60;99.90;;;;;;1884695;76;21542;-80
2023/08/30 03:08:31;;;;;;;0.85;0.78;;;14.50;99.90;;;;;;1884973;76;21080;-80
2023/08/30 03:11:22;;;;;;;1.45;1.00;;;14.50;99.90;;;;;;1884679;76;21623;-79
2023/08/30 03:14:16;;;;;;;1.60;0.72;;;14.50;99.90;;;;;;1884672;76;21118;-79
2023/08/30 03:17:07;;;;;;;1.52;0.93;;;14.60;99.90;;;;;;1882427;76;21132;-80
2023/08/30 03:20:00;;;;;;;2.55;1.00;;;14.60;99.90;;;;;;1872076;76;21115;-79
2023/08/30 03:22:52;;;;;;;1.47;0.75;;;14.50;99.90;;;;;;1872226;76;21163;-79
2023/08/30 03:25:44;;;;;;;2.15;1.02;;;14.40;99.90;;;;;;1872375;76;21628;-79
2023/08/30 03:28:36;;;;;;;1.57;0.70;;;14.40;99.90;;;;;;1872360;76;21154;-79
2023/08/30 03:31:29;;;;;;;0.88;0.60;;;14.50;99.90;;;;;;1872364;76;21081;-79
2023/08/30 03:34:20;;;;;;;1.10;0.80;;;14.40;99.90;;;;;;1872329;76;21156;-79
2023/08/30 03:37:12;;;;;;;1.55;0.80;;;14.50;99.90;;;;;;1872147;76;21141;-80
2023/08/30 03:40:04;;;;;;;1.47;0.80;;;14.60;99.90;;;;;;1872292;76;21599;-80
2023/08/30 03:42:55;;;;;;;2.47;0.80;;;14.60;99.90;;;;;;1872223;76;21045;-80
2023/08/30 03:45:48;;;;;;;2.15;0.95;;;14.60;99.90;;;;;;1872190;76;21510;-79
2023/08/30 03:48:41;;;;;;;1.17;0.90;;;14.50;99.90;;;;;;1872200;76;21082;-79
2023/08/30 03:51:32;;;;;;;0.95;0.72;;;14.30;99.90;;;;;;1872197;76;21109;-79
2023/08/30 03:54:23;;;;;;;1.72;0.80;;;14.30;99.90;;;;;;1872342;76;21109;-79
2023/08/30 03:57:15;;;;;;;3.20;0.85;;;14.30;99.90;;;;;;1872335;76;21513;-79
2023/08/30 04:00:08;;;;;;;1.98;0.80;;;14.30;99.90;;;;;;1872361;76;21191;-80
2023/08/30 04:03:04;;;;;;;1.25;0.93;;;14.10;99.90;;;;;;1872345;76;21207;-79
2023/08/30 04:05:58;;;;;;;1.00;0.85;;;14.10;99.90;;;;;;1872369;76;21112;-79
2023/08/30 04:08:49;;;;;;;3.05;1.10;;;14.00;99.90;;;;;;1872555;76;21057;-79
2023/08/30 04:11:42;;;;;;;1.10;0.90;;;14.00;99.90;;;;;;1872307;76;21093;-80
2023/08/30 04:14:34;;;;;;;1.77;0.78;;;14.00;99.90;;;;;;1872433;76;21093;-79
2023/08/30 04:17:27;;;;;;;1.87;0.90;;;14.00;99.90;;;;;;1872504;76;21159;-79
2023/08/30 04:20:19;;;;;;;2.05;0.95;;;13.90;99.90;;;;;;1872430;76;21124;-79
2023/08/30 04:23:11;;;;;;;5.22;1.00;;;13.90;99.90;;;;;;1872391;76;21529;-79
2023/08/30 04:26:03;;;;;;;2.70;1.00;;;14.00;99.90;;;;;;1872356;76;21100;-79
2023/08/30 04:28:55;;;;;;;1.40;0.90;;;13.90;99.90;;;;;;1872342;76;21058;-79
2023/08/30 04:31:46;;;;;;;1.17;1.00;;;13.80;99.90;;;;;;1872092;76;21162;-79
2023/08/30 04:34:38;;;;;;;3.67;1.12;;;13.70;99.90;;;;;;1865250;76;21162;-79
2023/08/30 04:37:34;;;;;;;2.27;1.25;;;13.70;99.90;;;;;;1843870;78;21072;-79
2023/08/30 04:40:28;;;;;;;1.72;0.90;;;13.80;99.90;;;;;;1843901;78;21072;-79
2023/08/30 04:43:20;;;;;;;1.75;1.15;;;13.80;99.90;;;;;;1843994;78;21496;-79
2023/08/30 04:46:12;;;;;;;2.60;1.00;;;13.80;99.90;;;;;;1843966;78;21575;-80
2023/08/30 04:49:05;;;;;;;2.15;1.20;;;13.90;99.90;;;;;;1844032;78;21100;-80
2023/08/30 04:51:56;;;;;;;2.60;1.20;;;13.90;99.90;;;;;;1843572;76;21186;-80
2023/08/30 04:54:49;;;;;;;1.77;1.07;;;13.90;99.90;;;;;;1843739;78;21607;-80
2023/08/30 04:57:44;;;;;;;2.00;0.80;;;14.00;99.90;;;;;;1843832;78;21072;-80
2023/08/30 05:00:36;;;;;;;1.10;0.90;;;14.00;99.90;;;;;;1843608;78;21151;-80
2023/08/30 05:03:27;;;;;;;2.52;1.20;;;13.90;99.90;;;;;;1843644;78;21575;-79
2023/08/30 05:06:20;;;;;;;3.65;1.52;;;13.80;99.90;;;;;;1843021;78;21066;-80
2023/08/30 05:09:11;;;;;;;3.10;1.30;;;13.80;99.90;;;;;;1841638;78;21133;-80
2023/08/30 05:12:04;;;;;;;1.72;1.20;;;13.80;99.90;;;;;;1841548;78;21240;-80
2023/08/30 05:14:55;;;;;;;3.98;1.20;;;13.70;99.90;;;;;;1841905;78;21117;-81
2023/08/30 05:17:47;;;;;;;3.30;1.42;;;13.70;99.90;;;;;;1841951;78;21117;-80
2023/08/30 05:20:39;;;;;;;1.95;1.15;;;13.70;99.90;;;;;;1845311;76;21141;-80
2023/08/30 05:23:31;;;;;;;2.10;1.22;;;13.80;99.90;;;;;;1843658;78;21102;-80
2023/08/30 05:26:23;;;;;;;2.60;1.30;;;13.80;99.90;;;;;;1844481;78;21187;-80
2023/08/30 05:29:15;;;;;;;2.17;1.20;;;13.90;99.90;;;;;;1844350;78;21134;-80
2023/08/30 05:32:07;;;;;;;2.10;1.32;;;13.80;99.90;;;;;;1844406;78;22097;-81
2023/08/30 05:35:10;;;;;;;4.65;1.25;;;13.80;99.90;;;;;;1825623;77;21124;-81
2023/08/30 05:38:06;;;;;;;2.12;1.12;;;13.80;99.90;;;;;;1832765;77;21113;-80
2023/08/30 05:41:03;;;;;;;3.98;1.42;;;13.80;99.90;;;;;;1844935;78;21164;-80
2023/08/30 05:43:54;;;;;;;1.25;0.90;;;13.90;99.90;;;;;;1844539;78;21106;-80
2023/08/30 05:46:46;;;;;;;1.77;1.07;;;14.10;99.90;;;;;;1843932;78;21063;-80
2023/08/30 05:49:37;;;;;;;2.05;1.12;;;14.20;99.90;;;;;;1844620;78;21639;-79
2023/08/30 05:52:32;;;;;;;3.20;1.20;;;14.20;99.90;;;;;;1844673;78;21113;-80
2023/08/30 05:55:22;;;;;;;1.67;1.10;;;14.30;99.90;;;;;;1844149;78;21199;-80
2023/08/30 05:58:15;;;;;;;1.35;0.95;;;14.30;99.90;;;;;;1844600;78;21168;-80
2023/08/30 06:01:07;;;;;;;1.45;1.15;;;14.30;99.90;;;;;;1843872;78;21569;-80
2023/08/30 06:03:59;;;;;;;1.10;0.90;;;14.30;99.90;;;;;;1844601;78;21146;-80
2023/08/30 06:06:51;;;;;;;2.37;1.17;;;14.40;99.90;;;;;;1844680;78;21102;-80
2023/08/30 06:09:42;;;;;;;2.65;1.10;;;14.40;99.90;;;;;;1844566;78;21138;-80
2023/08/30 06:12:33;;;;;;;2.67;1.25;;;14.50;99.90;;;;;;1844736;78;21159;-80
2023/08/30 06:15:26;;;;;;;1.37;1.00;;;14.50;99.90;;;;;;1844612;78;21105;-80
2023/08/30 06:18:17;;;;;;;2.80;1.00;;;14.60;99.90;;;;;;1844804;78;21147;-80
2023/08/30 06:21:09;;;;;;;2.05;1.10;;;14.70;99.90;;;;;;1843037;74;21223;-80
2023/08/30 06:24:00;;;;;;;4.65;1.32;;;14.70;99.90;;;;;;1853570;77;21069;-80
2023/08/30 06:26:53;;;;;;;3.42;1.20;;;14.70;99.90;;;;;;1842026;78;21106;-80
2023/08/30 06:29:44;;;;;;;1.67;1.30;;;14.80;99.90;;;;;;1853407;77;21153;-80
2023/08/30 06:32:36;;;;;;;3.27;1.22;;;14.80;99.90;;;;;;1842031;78;21074;-80
2023/08/30 06:35:28;;;;;;;1.45;0.90;;;14.90;99.90;;;;;;1853485;77;21121;-80
2023/08/30 06:38:20;;;;;;;1.95;1.00;;;15.00;99.90;;;;;;1841925;78;21121;-82
2023/08/30 06:41:12;;;;;;;1.92;1.20;;;14.90;99.90;;;;;;1841734;78;21562;-82
2023/08/30 06:44:04;;;;;;;2.83;1.05;;;15.00;99.90;;;;;;1853016;77;21141;-80
2023/08/30 06:46:56;;;;;;;2.75;1.22;;;15.10;99.90;;;;;;1842071;78;21077;-80
2023/08/30 06:49:51;;;;;;;1.50;0.80;;;15.20;99.90;;;;;;1841720;78;21130;-79
2023/08/30 06:52:43;;;;;;;3.42;0.93;;;15.20;99.90;;;;;;1853387;77;21183;-79
2023/08/30 06:55:36;;;;;;;3.47;1.20;;;15.20;99.90;;;;;;1841892;78;21565;-79
2023/08/30 06:58:28;;;;;;;1.52;1.00;;;15.10;99.90;;;;;;1853463;77;21179;-79
2023/08/30 07:01:19;;;;;;;2.58;1.35;;;15.10;99.90;;;;;;1853475;77;21117;-79
2023/08/30 07:04:11;;;;;;;4.22;1.30;;;15.00;99.90;;;;;;1841700;78;21109;-81
2023/08/30 07:07:02;;;;;;;2.60;1.27;;;15.00;99.90;;;;;;1867027;76;21099;-81
2023/08/30 07:09:54;;;;;;;2.33;1.40;;;15.00;99.90;;;;;;1872667;76;21190;-80
2023/08/30 07:12:48;;;;;;;2.50;1.25;;;15.10;99.90;;;;;;1861021;77;21108;-81
2023/08/30 07:15:39;;;;;;;4.62;1.42;;;15.10;99.90;;;;;;1860783;77;21116;-80
2023/08/30 07:18:30;;;;;;;2.92;1.40;;;15.20;99.90;;;;;;1860846;77;21130;-80
2023/08/30 07:21:22;;;;;;;2.37;1.52;;;15.20;99.90;;;;;;1872450;75;21140;-80
2023/08/30 07:24:14;;;;;;;4.25;1.60;;;15.30;99.90;;;;;;1847580;78;21114;-80
2023/08/30 07:27:06;;;;;;;1.00;0.95;;;15.40;99.90;;;;;;1847675;77;21467;-80
2023/08/30 07:29:57;;;;;;;1.98;1.07;;;15.40;99.90;;;;;;1847586;78;21110;-80
2023/08/30 07:32:49;;;;;;;1.92;1.30;;;15.60;99.90;;;;;;1847779;78;21142;-80
2023/08/30 07:35:41;;;;;;;3.50;1.20;;;15.70;99.90;;;;;;1847720;77;21189;-80
2023/08/30 07:38:32;;;;;;;2.85;1.55;;;15.90;99.90;;;;;;1847787;78;21113;-80
2023/08/30 07:41:24;;;;;;;2.62;1.40;;;15.90;99.90;;;;;;1847935;78;21433;-80
2023/08/30 07:44:16;;;;;;;2.85;1.30;;;16.00;99.90;;;;;;1847943;78;21113;-80
2023/08/30 07:47:07;;;;;;;2.58;1.42;;;16.10;99.90;;;;;;1847906;78;21109;-81
2023/08/30 07:49:59;;;;;;;2.85;1.20;;;16.10;99.90;;;;;;1848069;77;21581;-80
2023/08/30 07:52:50;;;;;;;3.37;1.20;;;16.10;99.90;;;;;;1847734;78;21067;-80
2023/08/30 07:55:43;;;;;;;3.77;1.40;;;16.20;99.90;;;;;;1847969;78;21308;-80
2023/08/30 07:58:35;;;;;;;2.00;1.37;;;16.20;99.90;;;;;;1848190;78;21173;-80
2023/08/30 08:01:26;;;;;;;2.65;1.40;;;16.30;99.90;;;;;;1847935;78;21070;-80
2023/08/30 08:04:18;;;;;;;1.65;1.10;;;16.20;99.90;;;;;;1848042;77;21176;-80
2023/08/30 08:07:34;;;;;;;3.60;1.10;;;16.20;99.90;;;;;;1847767;77;21200;-80
2023/08/30 08:10:28;;;;;;;2.83;1.45;;;16.30;99.90;;;;;;1847412;78;21122;-81
2023/08/30 08:13:19;;;;;;;1.42;1.02;;;16.40;99.90;;;;;;1847497;78;21175;-80
2023/08/30 08:16:11;;;;;;;3.62;1.20;;;16.50;99.90;;;;;;1847475;78;21070;-80
2023/08/30 08:19:03;;;;;;;4.50;1.17;;;16.70;99.90;;;;;;1847658;78;21190;-80
2023/08/30 08:21:57;;;;;;;2.42;1.20;;;16.80;99.90;;;;;;1846098;76;21190;-80
2023/08/30 08:25:01;;;;;;;1.12;1.05;;;16.80;99.90;;;;;;1918040;75;21156;-80
2023/08/30 08:27:53;;;;;;;5.22;1.57;;;16.80;99.90;;;;;;1918150;75;21093;-80
2023/08/30 08:30:45;;;;;;;3.72;0.93;;;16.80;99.90;;;;;;1917734;75;21092;-80
2023/08/30 08:33:49;;;;;;;3.58;1.02;;;16.70;99.90;;;;;;1918367;75;21123;-81
2023/08/30 08:36:43;;;;;;;3.92;1.30;;;16.80;99.90;;;;;;1918533;75;21115;-80
2023/08/30 08:39:36;;;;;;;2.70;1.40;;;16.80;99.90;;;;;;1918379;75;21096;-80
2023/08/30 08:42:29;;;;;;;3.00;1.57;;;17.00;99.90;;;;;;1918222;75;21112;-82
2023/08/30 08:45:21;;;;;;;3.33;1.30;;;17.00;99.90;;;;;;1918032;75;21164;-80
2023/08/30 08:48:14;;;;;;;2.87;1.22;;;16.90;99.90;;;;;;1918343;75;21092;-80
2023/08/30 08:51:06;;;;;;;2.27;1.17;;;17.00;99.90;;;;;;1918123;75;21122;-80
2023/08/30 08:54:01;;;;;;;3.47;1.40;;;17.10;99.90;;;;;;1918778;75;21157;-80
2023/08/30 08:56:54;;;;;;;5.03;1.72;;;17.10;99.90;;;;;;1918768;75;21143;-80
2023/08/30 08:59:45;;;;;;;2.15;1.42;;;17.00;99.90;;;;;;1918806;75;21176;-80
2023/08/30 09:02:37;;;;;;;4.47;1.50;;;17.20;99.90;;;;;;1918673;75;21123;-80
2023/08/30 09:05:30;;;;;;;1.30;1.20;;;17.30;99.90;;;;;;1918372;75;21206;-80
2023/08/30 09:08:24;;;;;;;2.55;1.42;;;17.20;99.90;;;;;;1918661;75;21107;-80
2023/08/30 09:11:18;;;;;;;1.85;1.10;;;17.40;99.90;;;;;;1918653;75;21148;-80
2023/08/30 09:14:10;;;;;;;2.92;1.35;;;17.50;99.90;;;;;;1918601;75;21197;-80
2023/08/30 09:17:04;;;;;;;3.72;1.45;;;17.50;99.90;;;;;;1918575;75;21061;-80
2023/08/30 09:19:57;;;;;;;2.67;1.32;;;17.50;99.90;;;;;;1918441;75;21185;-80
2023/08/30 09:22:50;;;;;;;4.12;1.12;;;17.50;99.90;;;;;;1916632;74;21139;-82
2023/08/30 09:25:42;;;;;;;1.95;1.20;;;17.70;99.90;;;;;;1908914;75;21575;-80
2023/08/30 09:32:35;;;;;;;1.65;1.22;;;18.00;99.90;;;;;;1903638;75;21094;-81
2023/08/30 09:35:30;;;;;;;3.17;1.30;;;18.00;99.90;;;;;;1894330;75;21583;-80
2023/08/30 09:38:21;;;;;;;3.40;1.10;;;18.10;99.90;;;;;;1884644;76;21061;-80
2023/08/30 09:41:14;;;;;;;1.67;1.30;;;18.30;99.90;;;;;;1884710;76;21137;-80
2023/08/30 09:44:12;;;;;;;1.55;1.00;;;18.50;99.90;;;;;;1884996;76;21084;-80
2023/08/30 09:47:05;;;;;;;2.50;1.40;;;18.50;99.90;;;;;;1885151;76;21100;-82
2023/08/30 09:50:01;;;;;;;1.17;1.00;;;18.50;99.90;;;;;;1884896;76;21097;-81
2023/08/30 09:52:53;;;;;;;1.50;1.10;;;18.60;99.90;;;;;;1884825;76;21556;-80
2023/08/30 09:55:47;;;;;;;2.80;1.22;;;18.70;99.90;;;;;;1884796;76;21068;-80
2023/08/30 09:58:39;;;;;;;2.65;1.55;;;18.70;99.90;;;;;;1884748;76;21211;-80
2023/08/30 10:01:32;;;;;;;2.00;1.40;;;18.70;99.90;;;;;;1884482;76;21116;-80
2023/08/30 10:04:24;;;;;;;3.22;1.32;;;18.80;99.90;;;;;;1884654;76;21616;-80
2023/08/30 10:07:20;;;;;;;1.40;1.30;;;18.80;99.90;;;;;;1884713;76;21869;-80
2023/08/30 10:10:14;;;;;;;1.75;1.10;;;18.80;99.90;;;;;;1884826;76;21139;-80
2023/08/30 10:13:08;;;;;;;1.95;1.20;;;18.80;99.90;;;;;;1884758;76;21068;-80
2023/08/30 10:16:05;;;;;;;2.72;1.60;;;18.80;99.90;;;;;;1884484;76;21166;-80
2023/08/30 10:19:01;;;;;;;3.40;1.82;;;18.80;99.90;;;;;;1884573;76;21136;-80
2023/08/30 10:21:57;;;;;;;1.77;1.40;;;18.90;99.90;;;;;;1884735;76;21186;-80
2023/08/30 10:24:51;;;;;;;3.05;1.42;;;19.00;99.90;;;;;;1876310;76;21722;-80
2023/08/30 10:27:47;;;;;;;3.15;1.57;;;19.00;99.90;;;;;;1872019;76;21205;-80
2023/08/30 10:30:41;;;;;;;1.30;1.05;;;19.10;99.90;;;;;;1872041;76;21140;-81
2023/08/30 10:33:33;;;;;;;2.75;1.40;;;19.20;99.90;;;;;;1872261;76;21141;-80
2023/08/30 10:36:24;;;;;;;1.98;1.32;;;19.20;99.90;;;;;;1872322;76;21085;-81
2023/08/30 10:39:17;;;;;;;2.87;1.12;;;19.30;99.90;;;;;;1872164;76;21065;-81
2023/08/30 10:42:13;;;;;;;2.08;1.10;;;19.30;99.90;;;;;;1872339;76;21171;-81
2023/08/30 10:45:08;;;;;;;3.70;1.50;;;19.40;99.90;;;;;;1872106;76;21213;-81
2023/08/30 10:48:03;;;;;;;3.08;1.20;;;19.50;99.90;;;;;;1872358;76;21166;-80
2023/08/30 10:50:55;;;;;;;1.35;1.05;;;19.50;99.90;;;;;;1872352;76;21109;-80
2023/08/30 10:53:58;;;;;;;1.20;1.07;;;19.60;99.90;;;;;;1872215;76;21112;-80
2023/08/30 10:56:52;;;;;;;1.82;1.00;;;19.90;99.90;;;;;;1871996;76;21092;-80
2023/08/30 10:59:51;;;;;;;1.47;1.27;;;20.00;99.90;;;;;;1872106;76;21144;-80
2023/08/30 11:02:46;;;;;;;1.82;0.95;;;20.00;99.90;;;;;;1872523;76;21085;-80
2023/08/30 11:05:39;;;;;;;1.75;1.12;;;20.00;99.90;;;;;;1872217;76;21093;-80
2023/08/30 11:08:31;;;;;;;2.00;1.50;;;20.20;99.90;;;;;;1872230;76;21057;-80
2023/08/30 11:11:23;;;;;;;1.47;1.02;;;20.10;99.90;;;;;;1872303;76;21089;-80
2023/08/30 11:14:15;;;;;;;1.45;1.10;;;20.20;99.90;;;;;;1872058;76;21100;-78
2023/08/30 11:17:08;;;;;;;1.15;1.05;;;20.40;99.90;;;;;;1871996;76;21118;-79
2023/08/30 11:20:07;;;;;;;1.12;0.95;;;20.40;99.90;;;;;;1872166;76;21153;-79
2023/08/30 11:22:59;;;;;;;2.10;1.15;;;20.60;99.90;;;;;;1872452;76;21163;-78
2023/08/30 11:25:54;;;;;;;2.30;0.90;;;20.60;99.90;;;;;;1887111;76;21146;-80
2023/08/30 11:28:48;;;;;;;1.00;0.90;;;20.80;99.90;;;;;;1893596;76;21140;-78
2023/08/30 11:31:40;;;;;;;1.30;1.20;;;21.00;99.90;;;;;;1893683;76;21116;-79
2023/08/30 11:34:32;;;;;;;1.10;1.00;;;20.90;99.90;;;;;;1893679;76;21052;-80
2023/08/30 11:37:23;;;;;;;2.30;0.82;;;20.90;99.90;;;;;;1893778;76;21096;-81
2023/08/30 11:40:15;;;;;;;1.70;0.90;;;21.00;99.90;;;;;;1893413;76;21170;-80
2023/08/30 11:43:07;;;;;;;1.30;0.72;;;21.00;99.90;;;;;;1893473;76;21305;-80
2023/08/30 11:45:59;;;;;;;1.20;1.02;;;21.20;99.90;;;;;;1893478;76;21091;-80
2023/08/30 11:48:52;;;;;;;1.80;0.90;;;21.10;99.90;;;;;;1893659;76;22008;-79
2023/08/30 11:51:45;;;;;;;1.87;1.20;;;21.10;99.90;;;;;;1893424;76;21111;-81
2023/08/30 11:54:36;;;;;;;1.30;0.90;;;21.20;99.90;;;;;;1893547;76;21185;-79
2023/08/30 11:57:28;;;;;;;0.70;0.70;;;21.10;99.90;;;;;;1893437;76;21131;-80
2023/08/30 12:00:21;;;;;;;1.30;1.00;;;21.10;99.90;;;;;;1893396;76;21144;-80
2023/08/30 12:03:15;;;;;;;1.02;0.90;;;21.20;99.90;;;;;;1893496;76;21149;-79
2023/08/30 12:06:11;;;;;;;1.87;0.88;;;21.10;99.90;;;;;;1893557;76;21073;-80
2023/08/30 12:09:05;;;;;;;1.12;0.90;;;21.20;99.90;;;;;;1893573;76;21190;-80
2023/08/30 12:12:06;;;;;;;1.15;1.00;;;21.40;99.90;;;;;;1893162;76;21107;-80
2023/08/30 12:14:59;;;;;;;1.00;0.90;;;21.50;99.90;;;;;;1893172;76;21186;-80
2023/08/30 12:17:51;;;;;;;2.12;0.95;;;21.50;99.90;;;;;;1893339;76;21636;-80
2023/08/30 12:20:53;;;;;;;1.35;1.02;;;21.40;99.90;;;;;;1893686;76;21092;-80
2023/08/30 12:23:44;;;;;;;2.12;1.05;;;21.50;99.90;;;;;;1893701;76;21108;-80
2023/08/30 12:26:38;;;;;;;1.10;0.90;;;21.50;99.90;;;;;;1893981;76;21713;-80
2023/08/30 12:29:28;;;;;;;1.50;0.78;;;21.80;99.90;;;;;;1893625;76;21117;-80
2023/08/30 12:32:19;;;;;;;1.60;1.02;;;21.90;99.90;;;;;;1893967;76;21096;-80
2023/08/30 12:35:11;;;;;;;1.00;0.90;;;21.80;99.90;;;;;;1889577;76;21088;-80
2023/08/30 12:38:03;;;;;;;1.40;1.10;;;21.80;99.90;;;;;;1883954;76;21072;-80
2023/08/30 12:40:56;;;;;;;1.85;1.02;;;21.80;99.90;;;;;;1884190;76;21104;-80
2023/08/30 12:43:47;;;;;;;1.20;0.90;;;21.90;99.90;;;;;;1884122;76;21101;-79
2023/08/30 12:46:38;;;;;;;2.72;0.88;;;22.10;99.90;;;;;;1884269;76;21571;-80
2023/08/30 12:49:30;;;;;;;1.65;1.12;;;22.10;99.90;;;;;;1884125;76;21096;-80
2023/08/30 12:52:21;;;;;;;1.00;0.90;;;22.10;99.90;;;;;;1884223;76;21158;-80
2023/08/30 12:55:13;;;;;;;0.72;0.70;;;22.20;99.90;;;;;;1884095;76;21217;-78
2023/08/30 12:58:05;;;;;;;1.22;0.90;;;22.20;99.90;;;;;;1884254;76;21557;-80
2023/08/30 13:00:56;;;;;;;0.90;0.78;;;22.10;99.90;;;;;;1883998;76;21392;-80
2023/08/30 13:03:47;;;;;;;1.65;0.80;;;22.00;99.90;;;;;;1884106;76;21161;-81
2023/08/30 13:06:39;;;;;;;1.22;0.78;;;22.00;99.90;;;;;;1902786;75;21084;-80
2023/08/30 13:09:30;;;;;;;1.65;0.88;;;22.00;99.90;;;;;;1918657;75;21088;-79
2023/08/30 13:12:22;;;;;;;1.45;0.60;;;22.20;99.90;;;;;;1918592;75;21129;-80
2023/08/30 13:15:13;;;;;;;1.05;0.72;;;22.30;99.90;;;;;;1918500;75;21146;-79
2023/08/30 13:18:05;;;;;;;3.27;0.90;;;22.30;99.90;;;;;;1918705;75;21202;-80
2023/08/30 13:20:58;;;;;;;1.40;1.00;;;22.40;99.90;;;;;;1918849;75;21100;-80
2023/08/30 13:23:49;;;;;;;1.87;0.98;;;22.50;99.90;;;;;;1918512;75;21647;-80
2023/08/30 13:26:40;;;;;;;0.78;0.78;;;22.60;99.90;;;;;;1916208;75;21166;-78
2023/08/30 13:29:32;;;;;;;2.15;0.90;;;22.50;99.90;;;;;;1908892;75;21080;-79
2023/08/30 13:32:24;;;;;;;1.10;1.00;;;22.50;99.90;;;;;;1908929;75;21088;-79
2023/08/30 13:35:16;;;;;;;0.70;0.68;;;22.60;99.90;;;;;;1909094;75;21536;-80
2023/08/30 13:38:07;;;;;;;1.02;0.90;;;22.70;99.90;;;;;;1909041;75;21061;-78
2023/08/30 13:41:03;;;;;;;1.32;1.00;;;22.70;99.90;;;;;;1908984;75;21089;-78
2023/08/30 13:43:55;;;;;;;1.95;0.90;;;22.40;99.90;;;;;;1909136;75;21105;-79
2023/08/30 13:46:48;;;;;;;0.88;0.80;;;22.40;99.90;;;;;;1908773;75;21390;-80
2023/08/30 13:49:40;;;;;;;1.70;0.90;;;22.40;99.90;;;;;;1909046;75;21166;-79
2023/08/30 13:52:33;;;;;;;0.95;0.80;;;22.50;99.90;;;;;;1909156;75;21079;-80
2023/08/30 13:55:24;;;;;;;1.30;1.00;;;22.80;99.90;;;;;;1909416;75;21691;-79
2023/08/30 13:58:15;;;;;;;1.25;0.85;;;23.00;99.90;;;;;;1909302;75;21563;-81
2023/08/30 14:01:07;;;;;;;0.82;0.80;;;23.20;99.90;;;;;;1909101;75;21557;-80
2023/08/30 14:03:58;;;;;;;1.10;0.82;;;23.10;99.90;;;;;;1909202;75;21096;-80
2023/08/30 14:06:50;;;;;;;2.02;0.90;;;22.90;99.90;;;;;;1909246;75;21100;-80
2023/08/30 14:09:42;;;;;;;1.20;1.10;;;23.30;99.90;;;;;;1909107;75;21536;-80
2023/08/30 14:12:34;;;;;;;1.37;0.90;;;23.70;99.90;;;;;;1909266;75;21085;-81
2023/08/30 14:15:27;;;;;;;2.05;1.00;;;24.00;99.90;;;;;;1908988;75;21065;-81
2023/08/30 14:18:19;;;;;;;0.85;0.70;;;24.40;99.90;;;;;;1908856;75;21124;-80
2023/08/30 14:21:10;;;;;;;0.88;0.88;;;24.70;99.90;;;;;;1909109;75;21093;-80
2023/08/30 14:24:02;;;;;;;2.20;1.00;;;25.00;99.90;;;;;;1908682;75;21097;-80
2023/08/30 14:26:55;;;;;;;0.93;0.82;;;25.10;99.90;;;;;;1908929;75;21073;-80
2023/08/30 14:29:48;;;;;;;1.45;1.00;;;25.30;99.90;;;;;;1920589;75;21065;-82
2023/08/30 14:32:40;;;;;;;2.10;0.88;;;25.10;99.90;;;;;;1920483;75;21073;-79
2023/08/30 14:35:31;;;;;;;0.93;0.80;;;25.20;99.90;;;;;;1921357;75;21099;-78
2023/08/30 14:38:22;;;;;;;2.40;1.00;;;25.20;99.90;;;;;;1921370;75;21077;-78
2023/08/30 14:41:15;;;;;;;1.25;0.90;;;25.30;99.90;;;;;;1921425;75;21096;-79
2023/08/30 14:44:08;;;;;;;1.70;1.10;;;25.20;99.90;;;;;;1920944;75;21533;-78
2023/08/30 14:46:59;;;;;;;1.30;1.00;;;25.10;99.90;;;;;;1921584;75;21121;-80
2023/08/30 14:49:51;;;;;;;1.00;0.90;;;25.00;99.90;;;;;;1921299;75;21243;-80
2023/08/30 14:52:42;;;;;;;1.32;0.80;;;25.00;99.90;;;;;;1921420;75;21040;-81
2023/08/30 14:55:33;;;;;;;3.17;1.27;;;25.10;99.90;;;;;;1921402;75;21096;-81
2023/08/30 14:58:26;;;;;;;1.17;1.05;;;25.30;99.90;;;;;;1921537;75;21080;-81
2023/08/30 15:01:28;;;;;;;2.92;1.20;;;25.50;99.90;;;;;;1921133;75;21552;-80
2023/08/30 15:04:19;;;;;;;1.45;1.00;;;25.30;99.90;;;;;;1825288;78;21124;-81